createdAt,value
2022-08-14T00:00:45.671Z,98004.06
2022-08-14T00:03:29.452Z,98006.16
2022-08-14T00:06:01.109Z,98003.88
2022-08-14T00:08:45.314Z,97994.75
2022-08-14T00:11:14.622Z,97999.13
2022-08-14T00:13:51.737Z,97997.91
2022-08-14T00:16:41.764Z,97998.31
2022-08-14T00:19:19.406Z,98008.03
2022-08-14T00:21:51.940Z,98009.91
2022-08-14T00:24:28.937Z,98002.25
2022-08-14T00:27:02.065Z,97997.50
2022-08-14T00:29:40.413Z,98000.78
2022-08-14T00:32:50.503Z,97997.91
2022-08-14T00:35:07.784Z,97993.16
2022-08-14T00:37:44.020Z,97991.94
2022-08-14T00:40:27.493Z,97984.06
2022-08-14T00:43:04.887Z,97988.81
2022-08-14T00:45:33.944Z,97983.19
2022-08-14T00:48:03.151Z,97980.91
2022-08-14T00:50:34.443Z,97984.03
2022-08-14T00:53:10.595Z,97979.69
2022-08-14T00:55:41.445Z,97974.94
2022-08-14T00:58:32.940Z,97972.25
2022-08-14T01:01:06.046Z,97973.25
2022-08-14T01:03:39.641Z,97967.69
2022-08-14T01:06:16.922Z,97968.09
2022-08-14T01:08:51.495Z,97970.56
2022-08-14T01:11:35.247Z,97968.72
2022-08-14T01:14:25.923Z,97963.97
2022-08-14T01:16:55.393Z,97953.84
2022-08-14T01:19:44.656Z,97958.38
2022-08-14T01:22:21.186Z,97956.72
2022-08-14T01:25:07.918Z,97955.69
2022-08-14T01:27:53.844Z,97954.44
2022-08-14T01:30:28.592Z,97957.53
2022-08-14T01:32:59.821Z,97951.31
2022-08-14T01:36:04.079Z,97941.00
2022-08-14T01:38:57.984Z,97944.91
2022-08-14T01:41:56.194Z,97955.22
2022-08-14T01:44:54.377Z,97950.66
2022-08-14T01:47:44.290Z,97947.78
2022-08-14T01:50:34.393Z,97943.22
2022-08-14T01:53:23.744Z,97942.78
2022-08-14T01:56:03.479Z,97942.78
2022-08-14T01:58:33.154Z,97930.41
2022-08-14T02:01:05.152Z,97939.06
2022-08-14T02:03:41.972Z,97933.69
2022-08-14T02:06:32.501Z,97936.38
2022-08-14T02:09:04.421Z,97928.53
2022-08-14T02:11:54.555Z,97922.13
2022-08-14T02:14:31.528Z,97925.81
2022-08-14T02:17:01.872Z,97924.13
2022-08-14T02:19:35.771Z,97921.66
2022-08-14T02:22:06.297Z,97921.00
2022-08-14T02:24:45.201Z,97913.81
2022-08-14T02:28:22.294Z,97912.13
2022-08-14T02:30:11.103Z,97912.97
2022-08-14T02:32:42.936Z,97898.06
2022-08-14T02:35:17.993Z,97894.78
2022-08-14T02:37:49.317Z,97894.75
2022-08-14T02:40:22.654Z,97896.38
2022-08-14T02:43:03.745Z,97897.03
2022-08-14T02:45:38.832Z,97893.06
2022-08-14T02:49:02.102Z,97902.16
2022-08-14T02:51:10.553Z,97881.50
2022-08-14T02:53:42.856Z,97885.22
2022-08-14T02:56:30.632Z,97879.66
2022-08-14T02:59:10.215Z,97878.56
2022-08-14T03:01:43.583Z,97866.38
2022-08-14T03:04:20.184Z,97865.34
2022-08-14T03:07:06.115Z,97871.09
2022-08-14T03:10:25.028Z,97866.97
2022-08-14T03:12:31.446Z,97876.44
2022-08-14T03:15:14.217Z,97875.81
2022-08-14T03:17:57.181Z,97875.38
2022-08-14T03:20:29.092Z,97871.88
2022-08-14T03:23:04.255Z,97863.00
2022-08-14T03:25:37.349Z,97864.84
2022-08-14T03:28:14.406Z,97864.44
2022-08-14T03:31:00.305Z,97862.56
2022-08-14T03:33:37.810Z,97863.97
2022-08-14T03:37:39.354Z,97860.66
2022-08-14T03:39:14.626Z,97857.34
2022-08-14T03:41:51.411Z,97851.38
2022-08-14T03:45:20.370Z,97854.66
2022-08-14T03:47:12.170Z,97862.28
2022-08-14T03:49:50.197Z,97859.34
2022-08-14T03:52:55.667Z,97849.88
2022-08-14T03:55:13.064Z,97845.25
2022-08-14T03:57:44.078Z,97842.59
2022-08-14T04:00:44.348Z,97845.94
2022-08-14T04:03:09.108Z,97840.59
2022-08-14T04:05:43.466Z,97838.88
2022-08-14T04:08:30.291Z,97834.84
2022-08-14T04:11:02.054Z,97823.84
2022-08-14T04:13:35.403Z,97828.84
2022-08-14T04:16:06.925Z,97824.88
2022-08-14T04:18:46.276Z,97815.44
2022-08-14T04:21:17.013Z,97817.44
2022-08-14T04:23:49.206Z,97817.22
2022-08-14T04:26:42.004Z,97814.34
2022-08-14T04:29:15.563Z,97815.16
2022-08-14T04:32:59.062Z,97815.81
2022-08-14T04:34:41.980Z,97810.72
2022-08-14T04:37:29.280Z,97804.91
2022-08-14T04:40:19.616Z,97800.00
2022-08-14T04:43:06.178Z,97807.00
2022-08-14T04:45:38.744Z,97802.47
2022-08-14T04:48:13.206Z,97808.84
2022-08-14T04:50:49.096Z,97795.91
2022-08-14T04:53:26.422Z,97803.94
2022-08-14T04:56:10.378Z,97806.03
2022-08-14T04:58:42.454Z,97802.13
2022-08-14T05:01:17.865Z,97802.31
2022-08-14T05:03:50.585Z,97801.09
2022-08-14T05:06:37.614Z,97799.19
2022-08-14T05:09:14.429Z,97800.06
2022-08-14T05:11:44.170Z,97798.00
2022-08-14T05:14:33.108Z,97799.09
2022-08-14T05:17:02.594Z,97797.06
2022-08-14T05:19:32.198Z,97804.06
2022-08-14T05:22:16.414Z,97807.19
2022-08-14T05:24:50.497Z,97803.47
2022-08-14T05:27:22.982Z,97802.66
2022-08-14T05:29:56.869Z,97808.47
2022-08-14T05:32:28.115Z,97810.75
2022-08-14T05:34:59.547Z,97813.66
2022-08-14T05:37:31.004Z,97808.13
2022-08-14T05:40:02.030Z,97814.72
2022-08-14T05:42:34.292Z,97815.75
2022-08-14T05:45:11.128Z,97804.84
2022-08-14T05:47:43.162Z,97807.78
2022-08-14T05:50:18.759Z,97816.88
2022-08-14T05:52:51.994Z,97827.63
2022-08-14T05:55:22.778Z,97824.50
2022-08-14T05:57:59.358Z,97823.50
2022-08-14T06:00:37.201Z,97825.97
2022-08-14T06:03:10.893Z,97829.06
2022-08-14T06:05:40.206Z,97841.44
2022-08-14T06:08:31.391Z,97841.00
2022-08-14T06:11:09.340Z,97831.53
2022-08-14T06:13:45.238Z,97838.91
2022-08-14T06:16:18.412Z,97841.97
2022-08-14T06:18:52.620Z,97839.88
2022-08-14T06:21:23.860Z,97845.34
2022-08-14T06:23:54.194Z,97834.75
2022-08-14T06:26:23.120Z,97832.38
2022-08-14T06:28:59.869Z,97818.72
2022-08-14T06:31:29.042Z,97826.28
2022-08-14T06:35:02.281Z,97820.56
2022-08-14T06:36:47.224Z,97823.53
2022-08-14T06:39:17.706Z,97820.91
2022-08-14T06:42:06.431Z,97814.94
2022-08-14T06:44:35.841Z,97815.91
2022-08-14T06:47:06.115Z,97810.19
2022-08-14T06:49:40.478Z,97809.03
2022-08-14T06:52:17.463Z,97804.06
2022-08-14T06:54:49.863Z,97811.19
2022-08-14T06:57:21.690Z,97812.88
2022-08-14T06:59:51.949Z,97815.63
2022-08-14T07:02:43.622Z,97796.38
2022-08-14T07:05:30.363Z,97788.00
2022-08-14T07:08:00.543Z,97781.00
2022-08-14T07:10:31.925Z,97778.00
2022-08-14T07:13:04.191Z,97782.16
2022-08-14T07:15:39.570Z,97789.06
2022-08-14T07:18:10.502Z,97779.78
2022-08-14T07:20:40.599Z,97770.69
2022-08-14T07:23:20.462Z,97777.72
2022-08-14T07:25:57.004Z,97760.91
2022-08-14T07:28:31.452Z,97759.72
2022-08-14T07:31:05.232Z,97755.84
2022-08-14T07:33:42.000Z,97754.69
2022-08-14T07:36:27.528Z,97739.66
2022-08-14T07:39:00.646Z,97739.72
2022-08-14T07:41:35.660Z,97732.66
2022-08-14T07:44:28.729Z,97733.47
2022-08-14T07:46:54.640Z,97723.31
2022-08-14T07:49:24.496Z,97721.88
2022-08-14T07:51:56.335Z,97722.09
2022-08-14T07:54:30.377Z,97712.84
2022-08-14T07:57:11.924Z,97704.06
2022-08-14T07:59:44.381Z,97704.19
2022-08-14T08:02:20.553Z,97705.88
2022-08-14T08:04:55.181Z,97700.03
2022-08-14T08:07:31.780Z,97689.25
2022-08-14T08:10:40.663Z,97693.66
2022-08-14T08:13:22.305Z,97683.84
2022-08-14T08:15:57.406Z,97680.59
2022-08-14T08:18:29.424Z,97680.00
2022-08-14T08:21:00.665Z,97681.84
2022-08-14T08:23:40.469Z,97686.13
2022-08-14T08:26:12.642Z,97678.66
2022-08-14T08:28:44.646Z,97670.31
2022-08-14T08:31:13.776Z,97664.19
2022-08-14T08:33:43.653Z,97667.41
2022-08-14T08:36:19.224Z,97672.25
2022-08-14T08:39:17.145Z,97667.03
2022-08-14T08:41:49.426Z,97664.66
2022-08-14T08:44:33.004Z,97666.94
2022-08-14T08:47:06.104Z,97659.25
2022-08-14T08:49:52.857Z,97656.56
2022-08-14T08:52:31.605Z,97661.88
2022-08-14T08:55:04.967Z,97660.84
2022-08-14T08:57:37.622Z,97649.56
2022-08-14T09:00:24.371Z,97651.16
2022-08-14T09:02:57.701Z,97649.75
2022-08-14T09:05:28.771Z,97652.50
2022-08-14T09:08:26.561Z,97642.13
2022-08-14T09:11:02.367Z,97642.84
2022-08-14T09:13:33.151Z,97629.53
2022-08-14T09:16:18.615Z,97632.22
2022-08-14T09:18:48.859Z,97638.78
2022-08-14T09:21:18.390Z,97638.09
2022-08-14T09:24:26.785Z,97642.00
2022-08-14T09:26:38.523Z,97646.75
2022-08-14T09:29:10.546Z,97637.34
2022-08-14T09:31:52.940Z,97634.72
2022-08-14T09:34:47.410Z,97635.34
2022-08-14T09:38:01.435Z,97629.25
2022-08-14T09:40:47.842Z,97616.81
2022-08-14T09:43:32.043Z,97623.19
2022-08-14T09:46:02.672Z,97630.47
2022-08-14T09:48:37.599Z,97635.09
2022-08-14T09:51:09.849Z,97630.69
2022-08-14T09:54:19.403Z,97623.88
2022-08-14T09:56:46.993Z,97621.59
2022-08-14T09:59:28.284Z,97609.47
2022-08-14T10:02:01.325Z,97609.41
2022-08-14T10:04:36.001Z,97605.66
2022-08-14T10:07:10.119Z,97602.88
2022-08-14T10:09:59.465Z,97604.53
2022-08-14T10:12:49.991Z,97588.13
2022-08-14T10:15:23.860Z,97591.19
2022-08-14T10:18:17.274Z,97588.44
2022-08-14T10:21:00.934Z,97578.22
2022-08-14T10:23:49.773Z,97572.00
2022-08-14T10:26:23.126Z,97573.59
2022-08-14T10:29:20.251Z,97570.34
2022-08-14T10:32:00.102Z,97562.19
2022-08-14T10:34:36.609Z,97558.16
2022-08-14T10:37:14.665Z,97556.34
2022-08-14T10:40:01.693Z,97560.34
2022-08-14T10:42:40.469Z,97558.13
2022-08-14T10:45:21.812Z,97558.09
2022-08-14T10:48:09.221Z,97560.16
2022-08-14T10:50:46.429Z,97546.44
2022-08-14T10:53:17.145Z,97539.44
2022-08-14T10:55:48.191Z,97533.09
2022-08-14T10:58:34.146Z,97534.56
2022-08-14T11:01:05.424Z,97543.22
2022-08-14T11:03:56.883Z,97545.72
2022-08-14T11:06:27.248Z,97546.38
2022-08-14T11:09:17.027Z,97540.72
2022-08-14T11:11:49.383Z,97538.03
2022-08-14T11:14:26.574Z,97541.66
2022-08-14T11:16:57.941Z,97536.78
2022-08-14T11:19:27.621Z,97535.03
2022-08-14T11:22:01.119Z,97535.69
2022-08-14T11:24:53.871Z,97530.38
2022-08-14T11:27:33.153Z,97526.41
2022-08-14T11:30:50.781Z,97520.69
2022-08-14T11:32:59.917Z,97517.50
2022-08-14T11:35:44.361Z,97512.22
2022-08-14T11:38:19.959Z,97513.63
2022-08-14T11:40:52.487Z,97514.34
2022-08-14T11:43:22.613Z,97505.59
2022-08-14T11:46:03.737Z,97505.19
2022-08-14T11:49:02.526Z,97500.75
2022-08-14T11:51:35.923Z,97498.50
2022-08-14T11:54:20.215Z,97497.72
2022-08-14T11:57:06.329Z,97494.84
2022-08-14T11:59:35.390Z,97468.75
2022-08-14T12:03:00.600Z,97471.41
2022-08-14T12:05:03.979Z,97475.94
2022-08-14T12:07:33.454Z,97464.19
2022-08-14T12:10:26.992Z,97464.03
2022-08-14T12:12:56.403Z,97451.63
2022-08-14T12:15:35.936Z,97451.13
2022-08-14T12:18:06.502Z,97451.56
2022-08-14T12:20:52.476Z,97452.72
2022-08-14T12:23:24.817Z,97433.38
2022-08-14T12:26:32.018Z,97445.84
2022-08-14T12:29:08.404Z,97437.00
2022-08-14T12:31:44.587Z,97432.09
2022-08-14T12:34:19.985Z,97431.09
2022-08-14T12:36:50.000Z,97418.28
2022-08-14T12:39:21.223Z,97408.97
2022-08-14T12:41:57.353Z,97410.38
2022-08-14T12:44:37.344Z,97410.75
2022-08-14T12:47:09.637Z,97412.91
2022-08-14T12:49:52.500Z,97406.59
2022-08-14T12:52:42.942Z,97412.47
2022-08-14T12:55:21.049Z,97398.94
2022-08-14T12:57:53.736Z,97380.34
2022-08-14T13:00:25.940Z,97385.31
2022-08-14T13:02:56.814Z,97379.81
2022-08-14T13:05:27.279Z,97368.13
2022-08-14T13:07:57.335Z,97358.03
2022-08-14T13:10:51.339Z,97359.78
2022-08-14T13:13:22.288Z,97363.66
2022-08-14T13:15:57.435Z,97354.88
2022-08-14T13:18:30.444Z,97357.31
2022-08-14T13:21:02.383Z,97350.44
2022-08-14T13:23:37.545Z,97334.03
2022-08-14T13:26:08.398Z,97350.00
2022-08-14T13:29:02.072Z,97338.25
2022-08-14T13:31:37.017Z,97341.72
2022-08-14T13:34:06.860Z,97327.41
2022-08-14T13:36:54.647Z,97312.19
2022-08-14T13:39:29.757Z,97296.03
2022-08-14T13:42:08.073Z,97300.22
2022-08-14T13:44:42.485Z,97293.81
2022-08-14T13:47:15.341Z,97295.59
2022-08-14T13:49:57.192Z,97281.94
2022-08-14T13:52:51.286Z,97281.66
2022-08-14T13:55:21.871Z,97271.56
2022-08-14T13:58:02.868Z,97267.81
2022-08-14T14:00:52.119Z,97271.81
2022-08-14T14:03:30.525Z,97274.78
2022-08-14T14:06:03.442Z,97284.06
2022-08-14T14:08:45.816Z,97288.09
2022-08-14T14:11:23.896Z,97270.84
2022-08-14T14:13:55.175Z,97261.56
2022-08-14T14:16:30.701Z,97261.84
2022-08-14T14:19:08.736Z,97259.94
2022-08-14T14:21:40.443Z,97247.94
2022-08-14T14:24:15.511Z,97260.03
2022-08-14T14:26:50.171Z,97254.19
2022-08-14T14:29:24.212Z,97259.53
2022-08-14T14:31:58.663Z,97252.31
2022-08-14T14:34:34.061Z,97258.03
2022-08-14T14:37:06.186Z,97255.47
2022-08-14T14:40:50.546Z,97245.50
2022-08-14T14:42:31.997Z,97231.31
2022-08-14T14:45:14.244Z,97239.41
2022-08-14T14:47:48.351Z,97242.59
2022-08-14T14:50:23.036Z,97234.16
2022-08-14T14:52:54.046Z,97230.59
2022-08-14T14:56:50.258Z,97231.50
2022-08-14T14:58:35.488Z,97227.34
2022-08-14T15:01:08.502Z,97230.66
2022-08-14T15:03:43.235Z,97237.59
2022-08-14T15:06:17.564Z,97230.59
2022-08-14T15:08:55.638Z,97231.53
2022-08-14T15:11:30.208Z,97225.31
2022-08-14T15:14:00.528Z,97223.47
2022-08-14T15:16:30.004Z,97217.56
2022-08-14T15:18:59.083Z,97218.03
2022-08-14T15:21:29.622Z,97209.63
2022-08-14T15:24:01.038Z,97210.66
2022-08-14T15:26:31.498Z,97211.88
2022-08-14T15:29:05.903Z,97213.09
2022-08-14T15:31:37.410Z,97213.31
2022-08-14T15:34:45.498Z,97211.84
2022-08-14T15:37:11.170Z,97212.63
2022-08-14T15:39:45.888Z,97209.34
2022-08-14T15:42:17.084Z,97213.66
2022-08-14T15:44:56.906Z,97203.72
2022-08-14T15:47:29.547Z,97208.97
2022-08-14T15:50:00.516Z,97212.31
2022-08-14T15:52:34.748Z,97207.09
2022-08-14T15:55:06.376Z,97211.47
2022-08-14T15:57:36.653Z,97197.69
2022-08-14T16:00:43.261Z,97195.47
2022-08-14T16:03:14.295Z,97198.81
2022-08-14T16:05:46.291Z,97189.91
2022-08-14T16:08:27.464Z,97194.31
2022-08-14T16:11:00.382Z,97193.56
2022-08-14T16:13:42.209Z,97183.03
2022-08-14T16:16:47.076Z,97184.06
2022-08-14T16:19:09.523Z,97180.97
2022-08-14T16:22:01.515Z,97178.00
2022-08-14T16:25:01.943Z,97185.16
2022-08-14T16:27:38.861Z,97182.47
2022-08-14T16:30:20.682Z,97181.94
2022-08-14T16:32:56.457Z,97179.16
2022-08-14T16:35:42.984Z,97187.06
2022-08-14T16:38:46.209Z,97185.53
2022-08-14T16:41:23.348Z,97177.91
2022-08-14T16:43:59.221Z,97176.00
2022-08-14T16:46:32.837Z,97164.63
2022-08-14T16:49:02.702Z,97165.88
2022-08-14T16:51:34.789Z,97170.28
2022-08-14T16:54:34.323Z,97163.31
2022-08-14T16:57:16.221Z,97171.72
2022-08-14T16:59:57.324Z,97164.44
2022-08-14T17:02:39.045Z,97164.84
2022-08-14T17:05:22.571Z,97159.19
2022-08-14T17:08:32.079Z,97159.75
2022-08-14T17:11:10.089Z,97150.78
2022-08-14T17:13:59.385Z,97152.53
2022-08-14T17:16:35.686Z,97157.94
2022-08-14T17:19:13.462Z,97151.50
2022-08-14T17:21:47.155Z,97149.97
2022-08-14T17:24:57.647Z,97151.28
2022-08-14T17:27:09.295Z,97155.94
2022-08-14T17:29:44.753Z,97158.75
2022-08-14T17:32:56.603Z,97160.44
2022-08-14T17:35:58.777Z,97162.28
2022-08-14T17:38:38.830Z,97161.69
2022-08-14T17:41:32.717Z,97152.13
2022-08-14T17:44:34.038Z,97166.84
2022-08-14T17:47:18.403Z,97158.88
2022-08-14T17:49:53.941Z,97170.78
2022-08-14T17:52:34.196Z,97167.78
2022-08-14T17:55:07.260Z,97166.09
2022-08-14T17:57:41.147Z,97174.22
2022-08-14T18:00:15.110Z,97168.66
2022-08-14T18:02:50.435Z,97171.59
2022-08-14T18:06:08.486Z,97166.81
2022-08-14T18:08:32.727Z,97166.78
2022-08-14T18:11:04.028Z,97169.66
2022-08-14T18:13:49.782Z,97173.03
2022-08-14T18:16:22.643Z,97175.28
2022-08-14T18:18:53.547Z,97179.00
2022-08-14T18:21:56.254Z,97173.13
2022-08-14T18:24:27.990Z,97178.34
2022-08-14T18:27:06.885Z,97189.91
2022-08-14T18:29:54.607Z,97189.34
2022-08-14T18:32:55.409Z,97188.78
2022-08-14T18:35:45.669Z,97184.16
2022-08-14T18:38:45.639Z,97188.25
2022-08-14T18:41:36.788Z,97198.38
2022-08-14T18:44:10.690Z,97198.91
2022-08-14T18:47:21.120Z,97198.09
2022-08-14T18:50:27.922Z,97190.69
2022-08-14T18:53:10.865Z,97199.03
2022-08-14T18:55:54.441Z,97196.78
2022-08-14T18:58:30.393Z,97203.22
2022-08-14T19:01:09.041Z,97199.00
2022-08-14T19:03:58.147Z,97211.16
2022-08-14T19:06:56.328Z,97213.22
2022-08-14T19:09:58.827Z,97213.06
2022-08-14T19:12:57.637Z,97210.47
2022-08-14T19:15:30.120Z,97215.44
2022-08-14T19:18:14.737Z,97213.34
2022-08-14T19:20:52.781Z,97217.22
2022-08-14T19:23:43.974Z,97204.22
2022-08-14T19:26:36.741Z,97213.03
2022-08-14T19:29:36.078Z,97212.78
2022-08-14T19:32:42.082Z,97222.09
2022-08-14T19:35:49.646Z,97216.44
2022-08-14T19:38:51.946Z,97214.03
2022-08-14T19:41:29.488Z,97217.63
2022-08-14T19:44:12.660Z,97222.00
2022-08-14T19:47:01.290Z,97223.59
2022-08-14T19:50:24.535Z,97230.69
2022-08-14T19:52:29.798Z,97232.34
2022-08-14T19:55:02.138Z,97241.06
2022-08-14T19:57:33.385Z,97233.44
2022-08-14T20:00:28.438Z,97230.72
2022-08-14T20:03:10.727Z,97234.28
2022-08-14T20:05:42.829Z,97240.50
2022-08-14T20:11:00.561Z,97235.03
2022-08-14T20:11:21.087Z,97234.19
2022-08-14T20:14:09.530Z,97234.47
2022-08-14T20:16:43.856Z,97230.38
2022-08-14T20:19:20.971Z,97239.31
2022-08-14T20:22:04.199Z,97239.28
2022-08-14T20:24:47.395Z,97232.75
2022-08-14T20:27:34.358Z,97235.94
2022-08-14T20:30:33.683Z,97234.81
2022-08-14T20:33:11.264Z,97237.47
2022-08-14T20:35:49.021Z,97241.25
2022-08-14T20:38:29.398Z,97234.16
2022-08-14T20:41:24.816Z,97235.72
2022-08-14T20:44:20.748Z,97231.09
2022-08-14T20:46:58.943Z,97225.31
2022-08-14T20:49:33.796Z,97230.94
2022-08-14T20:52:19.277Z,97240.38
2022-08-14T20:54:51.378Z,97241.94
2022-08-14T20:57:20.909Z,97235.69
2022-08-14T20:59:57.541Z,97240.25
2022-08-14T21:02:46.754Z,97243.16
2022-08-14T21:05:33.936Z,97247.75
2022-08-14T21:08:09.965Z,97248.75
2022-08-14T21:10:56.690Z,97246.00
2022-08-14T21:14:24.815Z,97247.06
2022-08-14T21:16:34.682Z,97252.16
2022-08-14T21:19:08.621Z,97258.09
2022-08-14T21:21:40.846Z,97255.63
2022-08-14T21:24:39.635Z,97248.59
2022-08-14T21:27:12.956Z,97255.31
2022-08-14T21:29:55.057Z,97254.19
2022-08-14T21:32:46.957Z,97258.81
2022-08-14T21:35:22.929Z,97256.03
2022-08-14T21:37:53.663Z,97243.00
2022-08-14T21:40:42.343Z,97246.78
2022-08-14T21:43:19.422Z,97254.84
2022-08-14T21:45:53.021Z,97244.53
2022-08-14T21:48:26.319Z,97251.53
2022-08-14T21:51:54.538Z,97246.63
2022-08-14T21:53:59.424Z,97250.34
2022-08-14T21:56:38.146Z,97251.94
2022-08-14T21:59:17.557Z,97253.78
2022-08-14T22:02:01.509Z,97251.00
2022-08-14T22:04:40.820Z,97260.38
2022-08-14T22:07:16.903Z,97255.97
2022-08-14T22:09:55.161Z,97254.28
2022-08-14T22:12:47.338Z,97259.91
2022-08-14T22:15:19.777Z,97262.75
2022-08-14T22:17:54.242Z,97258.34
2022-08-14T22:20:29.228Z,97258.53
2022-08-14T22:23:05.260Z,97247.88
2022-08-14T22:25:41.074Z,97251.84
2022-08-14T22:28:15.558Z,97244.50
2022-08-14T22:30:45.930Z,97250.91
2022-08-14T22:33:16.340Z,97242.72
2022-08-14T22:35:56.403Z,97242.91
2022-08-14T22:38:37.602Z,97247.41
2022-08-14T22:41:25.808Z,97237.81
2022-08-14T22:44:06.838Z,97232.59
2022-08-14T22:46:38.453Z,97231.97
2022-08-14T22:49:16.880Z,97240.78
2022-08-14T22:52:05.004Z,97240.13
2022-08-14T22:54:55.568Z,97237.81
2022-08-14T22:57:41.710Z,97239.63
2022-08-14T23:00:17.487Z,97228.19
2022-08-14T23:02:47.130Z,97227.00
2022-08-14T23:05:39.811Z,97213.94
2022-08-14T23:08:59.798Z,97222.75
2022-08-14T23:11:07.459Z,97231.84
2022-08-14T23:13:36.576Z,97225.53
2022-08-14T23:16:09.398Z,97228.13
2022-08-14T23:18:38.993Z,97227.47
2022-08-14T23:21:10.798Z,97222.56
2022-08-14T23:23:41.510Z,97219.78
2022-08-14T23:26:49.922Z,97223.97
2022-08-14T23:29:03.045Z,97224.69
2022-08-14T23:31:35.228Z,97214.63
2022-08-14T23:34:07.496Z,97218.88
2022-08-14T23:36:53.622Z,97215.28
2022-08-14T23:39:32.221Z,97227.84
2022-08-14T23:42:10.341Z,97231.03
2022-08-14T23:44:40.764Z,97226.34
2022-08-14T23:47:26.197Z,97237.84
2022-08-14T23:50:03.465Z,97226.97
2022-08-14T23:53:04.116Z,97226.16
2022-08-14T23:55:32.857Z,97226.41
2022-08-14T23:58:03.185Z,97222.28
